Time;durP1;ratioP1;P1;durP2;ratioP2;P2;SDS_P1;SDS_P2;PMS_P1;PMS_P2;Temp;Humidity;BMP_temperature;BMP_pressure;BME280_temperature;BME280_humidity;BME280_pressure;Samples;Min_cycle;Max_cycle;Signal;HPM_P1;HPM_P2
2021/06/18 00:01:23;;;;;;;11.20;10.10;;;;;;;25.79;56.02;100173.94;5081286;28;20545;-72
2021/06/18 00:03:50;;;;;;;11.30;10.17;;;;;;;25.81;56.04;100177.25;5082817;28;20512;-72
2021/06/18 00:06:16;;;;;;;13.10;10.07;;;;;;;25.68;56.53;100175.66;5082009;28;20484;-72
2021/06/18 00:08:43;;;;;;;11.80;10.53;;;;;;;25.53;57.11;100180.81;5082186;28;20460;-72
2021/06/18 00:11:10;;;;;;;13.30;10.80;;;;;;;25.54;56.78;100177.81;5082077;28;20508;-71
2021/06/18 00:13:36;;;;;;;16.70;11.23;;;;;;;25.55;56.91;100184.13;5062575;28;20481;-72
2021/06/18 00:16:05;;;;;;;12.23;11.00;;;;;;;25.58;56.88;100177.34;5071986;28;20695;-72
2021/06/18 00:18:31;;;;;;;11.60;10.60;;;;;;;25.61;56.61;100174.13;5080727;28;20455;-72
2021/06/18 00:20:58;;;;;;;14.30;10.40;;;;;;;25.63;56.76;100171.97;5082054;28;20492;-73
2021/06/18 00:23:25;;;;;;;15.20;10.67;;;;;;;25.47;57.08;100171.66;5079041;28;20481;-72
2021/06/18 00:25:51;;;;;;;12.50;10.30;;;;;;;25.21;57.45;100172.13;5069302;28;20917;-72
2021/06/18 00:28:18;;;;;;;11.67;10.07;;;;;;;25.06;58.02;100169.88;5081453;28;20486;-72
2021/06/18 00:30:44;;;;;;;11.00;10.00;;;;;;;25.12;57.81;100171.66;5081730;28;20472;-72
2021/06/18 00:33:13;;;;;;;13.53;9.67;;;;;;;25.04;58.13;100169.31;5082409;28;20464;-72
2021/06/18 00:35:39;;;;;;;10.70;9.60;;;;;;;25.06;58.42;100173.44;5081292;28;20488;-72
2021/06/18 00:38:06;;;;;;;12.00;8.93;;;;;;;25.08;58.32;100171.31;5081481;28;20483;-72
2021/06/18 00:40:32;;;;;;;11.43;9.80;;;;;;;25.09;58.11;100167.50;5080408;28;20475;-72
2021/06/18 00:42:59;;;;;;;12.97;10.33;;;;;;;25.19;57.69;100169.66;5082154;28;20447;-72
2021/06/18 00:45:26;;;;;;;10.07;9.10;;;;;;;25.18;57.71;100165.25;5081503;28;20809;-72
2021/06/18 00:47:56;;;;;;;10.37;9.27;;;;;;;25.16;57.88;100164.66;5081310;28;21064;-72
2021/06/18 00:50:25;;;;;;;9.60;8.77;;;;;;;25.09;58.02;100163.94;5081439;28;20541;-72
2021/06/18 00:52:52;;;;;;;10.43;9.37;;;;;;;25.10;58.43;100166.44;5081885;28;20480;-72
2021/06/18 00:55:18;;;;;;;9.13;8.33;;;;;;;25.04;58.43;100167.38;5080406;28;20503;-72
2021/06/18 00:57:46;;;;;;;9.83;8.70;;;;;;;24.90;58.21;100161.31;5066159;28;20512;-72
2021/06/18 01:00:14;;;;;;;10.13;9.10;;;;;;;24.75;58.11;100169.97;5068847;28;20465;-72
2021/06/18 01:02:41;;;;;;;16.70;9.00;;;;;;;24.71;58.33;100168.78;5081188;28;20475;-72
2021/06/18 01:05:09;;;;;;;10.77;8.27;;;;;;;24.76;58.76;100159.91;5080690;28;20976;-72
2021/06/18 01:07:46;;;;;;;10.77;9.33;;;;;;;24.73;58.92;100158.44;5081245;28;20488;-72
2021/06/18 01:10:19;;;;;;;9.80;8.40;;;;;;;24.74;58.40;100165.59;5080415;28;20487;-72
2021/06/18 01:12:51;;;;;;;10.60;9.50;;;;;;;24.54;58.55;100160.44;5081130;28;20492;-72
2021/06/18 01:15:20;;;;;;;12.47;9.93;;;;;;;24.41;59.07;100166.94;5081068;28;20453;-72
2021/06/18 01:17:50;;;;;;;10.53;9.50;;;;;;;24.41;59.20;100155.19;5081064;28;20486;-72
2021/06/18 01:20:27;;;;;;;14.23;8.87;;;;;;;24.46;59.03;100162.66;5081599;28;20459;-72
2021/06/18 01:22:56;;;;;;;10.63;9.40;;;;;;;24.52;59.18;100159.00;5080685;28;20436;-72
2021/06/18 01:25:26;;;;;;;10.50;8.67;;;;;;;24.53;58.91;100168.84;5080443;28;20550;-72
2021/06/18 01:27:59;;;;;;;9.80;8.80;;;;;;;24.48;58.82;100160.50;5081086;28;20462;-72
2021/06/18 01:30:28;;;;;;;10.27;9.27;;;;;;;24.45;58.67;100150.91;5081428;28;20488;-72
2021/06/18 01:32:59;;;;;;;9.53;8.27;;;;;;;24.33;58.53;100155.50;5080633;28;20456;-72
2021/06/18 01:35:29;;;;;;;12.53;8.83;;;;;;;24.26;58.93;100141.94;5080503;28;20503;-72
2021/06/18 01:37:58;;;;;;;10.73;8.40;;;;;;;24.19;59.53;100144.78;5080948;28;21111;-72
2021/06/18 01:40:27;;;;;;;10.27;9.27;;;;;;;23.99;59.94;100134.16;5060383;28;20527;-72
2021/06/18 01:42:53;;;;;;;10.20;9.20;;;;;;;23.94;60.35;100133.16;5076526;28;20521;-72
2021/06/18 01:45:21;;;;;;;12.40;9.00;;;;;;;23.61;61.38;100135.25;5080714;28;20527;-72
2021/06/18 01:47:49;;;;;;;10.80;9.70;;;;;;;23.85;60.10;100129.94;5080130;28;20547;-72
2021/06/18 01:50:18;;;;;;;13.50;9.63;;;;;;;23.93;60.18;100126.88;5081419;28;20502;-72
2021/06/18 01:52:49;;;;;;;10.83;9.80;;;;;;;23.96;59.90;100128.34;5081122;28;20974;-72
2021/06/18 01:55:17;;;;;;;10.10;9.30;;;;;;;23.84;59.74;100117.38;5079740;28;20476;-73
2021/06/18 01:57:45;;;;;;;14.37;9.73;;;;;;;23.82;59.77;100116.75;5080286;28;20474;-72
2021/06/18 02:00:12;;;;;;;10.93;9.60;;;;;;;23.78;59.63;100118.25;5079599;28;20503;-72
2021/06/18 02:02:39;;;;;;;14.70;11.03;;;;;;;23.85;59.50;100121.72;5081065;28;20642;-72
2021/06/18 02:05:09;;;;;;;11.33;9.37;;;;;;;23.90;59.46;100119.16;5079831;28;20448;-72
2021/06/18 02:07:37;;;;;;;9.97;8.90;;;;;;;23.87;59.88;100108.72;5080865;28;20480;-72
2021/06/18 02:10:06;;;;;;;10.33;9.10;;;;;;;23.89;59.70;100103.84;5063557;28;20489;-72
2021/06/18 02:12:33;;;;;;;9.30;8.43;;;;;;;23.90;59.52;100101.94;5079928;28;20532;-72
2021/06/18 02:15:00;;;;;;;9.90;8.67;;;;;;;23.81;59.68;100099.53;5084516;28;20962;-72
2021/06/18 02:17:27;;;;;;;10.00;9.03;;;;;;;23.80;59.91;100107.91;5083275;28;20543;-72
2021/06/18 02:19:55;;;;;;;9.87;8.93;;;;;;;23.80;59.74;100102.47;5085478;28;20497;-72
2021/06/18 02:22:24;;;;;;;9.40;8.63;;;;;;;23.77;59.84;100097.47;5083758;28;20480;-72
2021/06/18 02:24:52;;;;;;;11.13;10.10;;;;;;;23.67;60.01;100100.75;5083839;28;20539;-72
2021/06/18 02:27:19;;;;;;;11.20;10.20;;;;;;;23.66;59.53;100094.47;5083805;28;20506;-72
2021/06/18 02:29:46;;;;;;;19.00;10.10;;;;;;;23.64;59.47;100088.41;5085291;28;20441;-72
2021/06/18 02:32:14;;;;;;;9.50;8.60;;;;;;;23.71;59.54;100092.94;5083697;28;20480;-72
2021/06/18 02:34:41;;;;;;;11.33;9.00;;;;;;;23.63;59.48;100089.47;5084181;28;20851;-72
2021/06/18 02:37:09;;;;;;;13.90;8.97;;;;;;;23.53;59.96;100085.63;5083787;28;20575;-72
2021/06/18 02:39:38;;;;;;;9.93;9.00;;;;;;;23.42;60.49;100076.31;5083826;28;20528;-72
2021/06/18 02:42:05;;;;;;;10.43;9.40;;;;;;;23.31;60.72;100075.19;5083105;28;20500;-72
2021/06/18 02:44:32;;;;;;;11.70;9.27;;;;;;;23.33;60.58;100077.69;5084220;28;20480;-72
2021/06/18 02:47:05;;;;;;;14.37;9.57;;;;;;;23.17;60.97;100082.69;5083397;28;20522;-72
2021/06/18 02:49:39;;;;;;;14.27;11.33;;;;;;;23.17;60.91;100073.69;5084571;28;20539;-72
2021/06/18 02:52:08;;;;;;;11.73;10.63;;;;;;;23.27;60.71;100072.06;5083330;28;20945;-72
2021/06/18 02:54:36;;;;;;;10.37;9.30;;;;;;;23.29;60.92;100074.59;5083886;28;20483;-72
2021/06/18 02:57:08;;;;;;;14.50;11.13;;;;;;;23.34;60.56;100063.81;5068430;28;20583;-72
2021/06/18 02:59:38;;;;;;;11.43;8.40;;;;;;;23.28;60.71;100065.56;5066562;28;20512;-72
2021/06/18 03:02:08;;;;;;;10.67;9.73;;;;;;;23.29;60.42;100074.59;5082871;28;20475;-71
2021/06/18 03:04:37;;;;;;;10.60;9.33;;;;;;;23.24;60.88;100068.97;5084039;28;20485;-71
2021/06/18 03:07:07;;;;;;;11.90;10.27;;;;;;;23.16;61.15;100063.81;5083250;28;20480;-71
2021/06/18 03:09:37;;;;;;;11.93;8.70;;;;;;;23.31;60.96;100067.84;5083625;28;20452;-72
2021/06/18 03:12:08;;;;;;;10.80;9.70;;;;;;;23.28;61.04;100062.84;5082548;28;20547;-72
2021/06/18 03:14:36;;;;;;;10.87;8.47;;;;;;;23.24;61.21;100066.25;5083710;28;20456;-72
2021/06/18 03:17:05;;;;;;;10.60;9.50;;;;;;;23.27;60.85;100072.06;5082981;28;20480;-72
2021/06/18 03:19:34;;;;;;;9.83;8.83;;;;;;;23.41;60.45;100070.03;5084292;28;20445;-72
2021/06/18 03:22:02;;;;;;;11.20;10.10;;;;;;;23.41;60.48;100074.66;5082540;28;21052;-72
2021/06/18 03:24:30;;;;;;;10.40;9.40;;;;;;;23.40;60.58;100081.16;5082646;28;20476;-72
2021/06/18 03:26:57;;;;;;;10.80;9.67;;;;;;;23.42;60.83;100068.16;5082672;28;20536;-72
2021/06/18 03:29:27;;;;;;;9.80;8.80;;;;;;;23.39;61.19;100074.88;5084125;28;21038;-72
2021/06/18 03:31:54;;;;;;;11.73;10.63;;;;;;;23.62;60.61;100082.34;5082660;28;20484;-72
2021/06/18 03:34:21;;;;;;;10.23;9.20;;;;;;;23.97;59.28;100084.38;5082715;28;20444;-72
2021/06/18 03:36:48;;;;;;;10.77;9.80;;;;;;;24.27;58.39;100090.88;5082711;28;20500;-72
2021/06/18 03:39:15;;;;;;;10.87;9.70;;;;;;;24.46;57.80;100091.59;5083204;28;20460;-72
2021/06/18 03:41:41;;;;;;;10.73;9.60;;;;;;;24.62;56.88;100086.31;5082169;28;20479;-72
2021/06/18 03:44:08;;;;;;;10.13;9.27;;;;;;;24.75;56.67;100090.69;5081932;28;20467;-72
2021/06/18 03:46:38;;;;;;;12.43;10.60;;;;;;;24.83;56.50;100091.44;5083089;28;20487;-72
2021/06/18 03:49:04;;;;;;;11.30;10.10;;;;;;;25.06;55.96;100096.84;5083068;28;20498;-72
2021/06/18 03:51:31;;;;;;;10.63;9.63;;;;;;;25.71;53.98;100093.03;5082411;28;20535;-72
2021/06/18 03:53:58;;;;;;;10.03;9.13;;;;;;;25.79;53.79;100104.66;5082786;28;20488;-72
2021/06/18 03:56:25;;;;;;;9.23;8.33;;;;;;;25.90;53.34;100098.28;5068329;28;20496;-73
2021/06/18 03:58:53;;;;;;;10.77;9.67;;;;;;;26.49;51.64;100106.16;5082872;28;20526;-72
2021/06/18 04:01:20;;;;;;;10.23;9.10;;;;;;;26.59;51.26;100100.84;5082063;28;20930;-73
2021/06/18 04:03:50;;;;;;;10.07;9.27;;;;;;;26.94;50.39;100110.72;5081023;28;20539;-72
2021/06/18 04:06:18;;;;;;;12.43;9.20;;;;;;;27.51;48.67;100111.50;5079733;28;20499;-73
2021/06/18 04:08:45;;;;;;;9.80;8.90;;;;;;;27.98;47.09;100110.94;5076956;28;20950;-72
2021/06/18 04:11:12;;;;;;;13.93;9.47;;;;;;;28.43;46.42;100115.19;5081381;28;20575;-73
2021/06/18 04:13:39;;;;;;;12.83;9.83;;;;;;;29.02;45.00;100119.75;5081928;28;20491;-72
2021/06/18 04:16:07;;;;;;;15.03;8.73;;;;;;;29.28;43.87;100119.94;5081995;28;20500;-71
2021/06/18 04:18:34;;;;;;;12.43;9.03;;;;;;;29.47;43.04;100114.78;5081984;28;20483;-71
2021/06/18 04:21:07;;;;;;;9.33;8.33;;;;;;;29.92;41.96;100113.28;5075206;28;20537;-72
2021/06/18 04:23:33;;;;;;;8.90;8.10;;;;;;;30.09;42.21;100109.47;5082608;28;20452;-71
2021/06/18 04:26:01;;;;;;;12.00;8.80;;;;;;;30.76;40.04;100105.59;5081921;28;21317;-72
2021/06/18 04:28:28;;;;;;;9.57;8.60;;;;;;;30.77;39.93;100110.00;5079747;28;20465;-71
2021/06/18 04:30:55;;;;;;;10.40;9.30;;;;;;;30.24;41.32;100101.16;5081377;28;21156;-72
2021/06/18 04:33:22;;;;;;;9.70;8.57;;;;;;;31.29;39.24;100098.84;5081751;28;20452;-72
2021/06/18 04:35:48;;;;;;;9.63;8.50;;;;;;;31.79;38.00;100096.16;5079733;28;20480;-72
2021/06/18 04:38:17;;;;;;;10.50;8.87;;;;;;;32.01;37.49;100101.22;5079702;28;20477;-72
2021/06/18 04:40:43;;;;;;;10.47;8.93;;;;;;;32.84;35.87;100094.72;5079525;28;20472;-73
2021/06/18 04:43:10;;;;;;;9.30;8.40;;;;;;;32.59;36.19;100104.09;5077771;28;20468;-73
2021/06/18 04:45:37;;;;;;;10.03;9.00;;;;;;;33.14;35.03;100103.88;5081657;28;20457;-73
2021/06/18 04:48:04;;;;;;;9.23;8.43;;;;;;;33.30;34.59;100098.97;5065076;28;20522;-73
2021/06/18 04:50:31;;;;;;;8.70;7.30;;;;;;;32.60;35.76;100114.09;5074910;28;20464;-73
2021/06/18 04:52:57;;;;;;;8.97;8.03;;;;;;;32.97;35.16;100098.75;5078784;28;20470;-73
2021/06/18 04:55:25;;;;;;;8.40;7.60;;;;;;;32.61;35.81;100103.84;5081137;28;20452;-74
2021/06/18 04:57:52;;;;;;;12.60;9.70;;;;;;;32.53;35.76;100102.47;5079567;28;20452;-73
2021/06/18 05:00:23;;;;;;;9.60;8.80;;;;;;;31.93;36.82;100105.44;5061414;28;20445;-72
2021/06/18 05:02:50;;;;;;;9.27;8.40;;;;;;;32.99;35.00;100095.69;5071764;28;21071;-71
2021/06/18 05:05:17;;;;;;;9.30;8.50;;;;;;;33.39;34.39;100102.72;5078158;28;20467;-72
2021/06/18 05:07:44;;;;;;;10.60;8.83;;;;;;;34.27;33.08;100095.94;5079994;28;20476;-73
2021/06/18 05:10:11;;;;;;;14.87;9.50;;;;;;;34.55;32.22;100096.00;5078403;28;20452;-73
2021/06/18 05:12:39;;;;;;;13.70;8.50;;;;;;;34.57;32.10;100099.31;5081149;28;20504;-72
2021/06/18 05:15:07;;;;;;;8.77;7.87;;;;;;;34.69;32.30;100099.66;5080627;28;20448;-73
2021/06/18 05:17:34;;;;;;;9.20;7.27;;;;;;;35.38;30.75;100093.31;5066266;28;20480;-73
2021/06/18 05:20:00;;;;;;;8.90;7.57;;;;;;;35.36;30.57;100090.84;5081003;28;20515;-73
2021/06/18 05:22:27;;;;;;;7.70;7.00;;;;;;;35.38;31.10;100098.88;5080861;28;20472;-73
2021/06/18 05:24:54;;;;;;;9.00;6.80;;;;;;;36.22;29.66;100093.97;5081071;28;20456;-73
2021/06/18 05:27:21;;;;;;;7.47;6.57;;;;;;;35.88;29.84;100086.97;5080256;28;20482;-73
2021/06/18 05:29:49;;;;;;;8.00;6.80;;;;;;;35.70;29.96;100089.56;5081284;28;20482;-73
2021/06/18 05:32:17;;;;;;;9.50;6.30;;;;;;;35.71;30.22;100090.38;5080974;28;20500;-73
2021/06/18 05:34:44;;;;;;;6.80;6.20;;;;;;;36.76;28.72;100105.94;5071905;28;20453;-73
2021/06/18 05:37:10;;;;;;;8.03;7.10;;;;;;;37.04;28.85;100106.53;5060171;28;20469;-74
2021/06/18 05:39:37;;;;;;;6.80;6.10;;;;;;;36.49;28.95;100099.38;5076565;28;20460;-74
2021/06/18 05:42:04;;;;;;;7.80;7.00;;;;;;;36.74;28.96;100111.81;5076723;28;20968;-73
2021/06/18 05:44:31;;;;;;;9.40;5.57;;;;;;;37.82;26.91;100105.94;5080092;28;20495;-73
2021/06/18 05:46:59;;;;;;;9.80;5.80;;;;;;;38.22;26.62;100114.16;5079879;28;20532;-75
2021/06/18 05:49:26;;;;;;;6.43;4.90;;;;;;;38.14;25.48;100109.44;5076963;28;20471;-75
2021/06/18 05:51:52;;;;;;;6.07;5.03;;;;;;;38.31;25.94;100116.94;5080012;28;20565;-75
2021/06/18 05:54:19;;;;;;;6.00;5.40;;;;;;;36.98;27.17;100123.72;5075075;28;20457;-74
2021/06/18 05:56:46;;;;;;;6.30;4.83;;;;;;;37.36;27.25;100126.84;5068353;28;20571;-74
2021/06/18 05:59:12;;;;;;;7.07;6.37;;;;;;;35.30;30.10;100132.97;5066777;28;20479;-74
2021/06/18 06:01:39;;;;;;;7.73;5.73;;;;;;;36.07;29.27;100122.94;5076454;28;20507;-72
2021/06/18 06:04:07;;;;;;;8.37;5.77;;;;;;;36.45;28.92;100129.00;5079478;28;20468;-73
2021/06/18 06:06:34;;;;;;;6.70;6.10;;;;;;;37.06;28.28;100123.75;5079298;28;20516;-74
2021/06/18 06:09:01;;;;;;;9.10;6.60;;;;;;;38.30;26.65;100118.09;5080406;28;20479;-73
2021/06/18 06:11:29;;;;;;;6.17;5.57;;;;;;;38.94;25.01;100120.09;5079452;28;20480;-73
2021/06/18 06:14:00;;;;;;;7.03;5.63;;;;;;;38.31;26.16;100116.13;5080167;28;20453;-73
2021/06/18 06:16:27;;;;;;;5.97;5.40;;;;;;;37.04;27.38;100114.09;5079866;28;20499;-73
2021/06/18 06:18:53;;;;;;;8.00;6.40;;;;;;;37.20;27.54;100115.31;5080476;28;20460;-73
2021/06/18 06:21:22;;;;;;;6.60;6.00;;;;;;;37.55;27.66;100115.41;5074897;28;20468;-72
2021/06/18 06:23:50;;;;;;;8.70;6.53;;;;;;;37.28;27.91;100110.91;5080387;28;20539;-72
2021/06/18 06:26:17;;;;;;;8.77;6.63;;;;;;;36.73;28.40;100115.75;5080032;28;20468;-72
2021/06/18 06:28:43;;;;;;;8.10;6.77;;;;;;;37.42;27.59;100114.38;5079942;28;20487;-73
2021/06/18 06:31:10;;;;;;;9.47;7.07;;;;;;;37.68;27.41;100113.66;5079474;28;20495;-73
2021/06/18 06:33:37;;;;;;;8.63;5.63;;;;;;;37.54;27.55;100102.59;5078597;28;20925;-73
2021/06/18 06:36:04;;;;;;;8.30;6.50;;;;;;;37.53;27.01;100114.09;5060066;28;20503;-71
2021/06/18 06:38:32;;;;;;;9.37;6.17;;;;;;;37.00;28.47;100107.53;5091719;28;21077;-72
2021/06/18 06:40:59;;;;;;;8.10;6.70;;;;;;;37.14;27.66;100116.59;5078264;28;20471;-72
2021/06/18 06:43:25;;;;;;;7.10;5.83;;;;;;;37.02;27.78;100108.84;5077845;28;20483;-72
2021/06/18 06:45:52;;;;;;;8.80;6.20;;;;;;;37.56;27.20;100105.88;5077889;28;20509;-72
2021/06/18 06:48:19;;;;;;;6.10;5.50;;;;;;;37.54;27.40;100099.00;5078845;28;20522;-72
2021/06/18 06:50:45;;;;;;;9.37;6.50;;;;;;;38.05;26.47;100092.66;5079042;28;20492;-72
2021/06/18 06:53:12;;;;;;;6.93;5.60;;;;;;;37.23;27.60;100097.13;5078221;28;20512;-72
2021/06/18 06:55:40;;;;;;;6.90;5.70;;;;;;;37.37;27.85;100094.22;5078316;28;20498;-73
2021/06/18 06:58:07;;;;;;;9.53;6.80;;;;;;;37.04;28.45;100103.75;5079051;28;20484;-72
2021/06/18 07:00:34;;;;;;;6.67;6.00;;;;;;;36.76;29.12;100092.00;5091027;28;20510;-73
2021/06/18 07:03:00;;;;;;;6.30;5.80;;;;;;;37.14;28.58;100102.66;5103392;28;20478;-73
2021/06/18 07:05:27;;;;;;;14.73;9.30;;;;;;;38.42;26.63;100106.25;5101867;28;20912;-74
2021/06/18 07:07:53;;;;;;;7.37;6.53;;;;;;;37.86;27.24;100098.56;5082931;28;20856;-73
2021/06/18 07:10:20;;;;;;;7.10;6.40;;;;;;;38.83;25.95;100095.63;5080258;28;20444;-73
2021/06/18 07:12:48;;;;;;;7.10;6.50;;;;;;;38.86;25.55;100109.75;5082485;28;20482;-71
2021/06/18 07:15:15;;;;;;;7.70;6.70;;;;;;;38.28;26.35;100108.41;5080802;28;20506;-73
2021/06/18 07:17:42;;;;;;;7.37;6.13;;;;;;;38.12;27.15;100106.13;5082258;28;20456;-73
2021/06/18 07:20:10;;;;;;;9.90;7.00;;;;;;;37.72;27.64;100092.31;5094748;28;20467;-73
2021/06/18 07:22:36;;;;;;;6.90;6.30;;;;;;;38.39;26.91;100096.56;5101903;28;20424;-73
2021/06/18 07:25:04;;;;;;;7.53;6.30;;;;;;;39.72;25.34;100095.63;5085705;28;20557;-73
2021/06/18 07:27:31;;;;;;;13.50;7.07;;;;;;;40.01;24.73;100089.16;5081683;28;20973;-73
2021/06/18 07:30:00;;;;;;;7.43;6.20;;;;;;;39.98;24.89;100086.25;5080489;28;20460;-72
2021/06/18 07:32:26;;;;;;;8.67;5.90;;;;;;;39.22;25.80;100088.06;5082021;28;20506;-72
2021/06/18 07:34:53;;;;;;;7.67;6.43;;;;;;;39.70;25.54;100087.59;5078555;28;20546;-73
2021/06/18 07:37:20;;;;;;;7.40;6.70;;;;;;;39.72;25.06;100081.66;5080881;28;20476;-72
2021/06/18 07:39:46;;;;;;;6.53;6.03;;;;;;;40.33;23.93;100081.13;5079768;28;21034;-72
2021/06/18 07:42:13;;;;;;;8.20;6.87;;;;;;;40.15;25.03;100091.66;5094408;28;20519;-72
2021/06/18 07:44:40;;;;;;;9.73;7.10;;;;;;;40.11;24.25;100087.94;5081972;28;20452;-72
2021/06/18 07:47:08;;;;;;;7.97;7.07;;;;;;;40.13;24.30;100085.59;5080146;28;20556;-72
2021/06/18 07:49:35;;;;;;;6.73;6.00;;;;;;;40.08;24.17;100083.00;5081740;28;20512;-72
2021/06/18 07:52:02;;;;;;;8.23;6.70;;;;;;;39.68;25.04;100089.09;5101917;28;20476;-73
2021/06/18 07:54:29;;;;;;;7.67;6.80;;;;;;;38.82;26.60;100085.59;5096596;28;20448;-72
2021/06/18 07:56:56;;;;;;;10.00;6.07;;;;;;;39.28;25.73;100095.91;5099891;28;20479;-73
2021/06/18 07:59:23;;;;;;;7.17;6.53;;;;;;;40.26;24.61;100087.28;5089923;28;20448;-73
2021/06/18 08:01:50;;;;;;;8.03;6.90;;;;;;;39.56;25.51;100087.03;5097326;28;21043;-72
2021/06/18 08:04:18;;;;;;;9.13;6.60;;;;;;;39.82;25.26;100083.22;5101005;28;20929;-72
2021/06/18 08:06:44;;;;;;;6.80;6.20;;;;;;;39.76;25.57;100074.22;5101461;28;20486;-73
2021/06/18 08:09:11;;;;;;;7.50;6.80;;;;;;;39.98;24.78;100084.25;5091872;28;20476;-73
2021/06/18 08:11:38;;;;;;;7.40;6.80;;;;;;;40.41;24.64;100076.63;5078228;28;20503;-73
2021/06/18 08:14:05;;;;;;;6.90;6.30;;;;;;;40.35;24.35;100078.78;5081659;28;21061;-73
2021/06/18 08:16:32;;;;;;;7.27;6.60;;;;;;;40.34;24.66;100071.53;5073956;28;20465;-72
2021/06/18 08:18:59;;;;;;;7.43;6.73;;;;;;;39.80;25.57;100068.75;5080315;28;20456;-72
2021/06/18 08:21:27;;;;;;;10.37;7.27;;;;;;;40.48;24.78;100066.47;5080642;28;20469;-73
2021/06/18 08:23:53;;;;;;;9.20;6.70;;;;;;;41.25;23.83;100072.63;5080414;28;20429;-72
2021/06/18 08:26:20;;;;;;;7.53;6.80;;;;;;;41.21;23.62;100069.69;5079539;28;20503;-73
2021/06/18 08:28:47;;;;;;;7.20;6.60;;;;;;;41.52;24.16;100080.28;5080984;28;20542;-72
2021/06/18 08:31:14;;;;;;;7.27;6.60;;;;;;;42.33;22.63;100066.22;5080645;28;20472;-73
2021/06/18 08:33:40;;;;;;;7.00;6.40;;;;;;;42.54;22.25;100076.41;5077122;28;20504;-73
2021/06/18 08:36:07;;;;;;;9.77;6.30;;;;;;;42.84;22.52;100090.00;5080238;28;20482;-73
2021/06/18 08:38:36;;;;;;;6.97;6.23;;;;;;;42.69;21.80;100078.41;5089989;28;20452;-73
2021/06/18 08:41:04;;;;;;;6.10;5.47;;;;;;;43.02;23.01;100084.84;5077688;28;20562;-74
2021/06/18 08:43:33;;;;;;;6.93;6.33;;;;;;;42.73;22.04;100086.09;5085885;28;20446;-73
2021/06/18 08:46:01;;;;;;;9.00;6.90;;;;;;;42.72;23.19;100084.50;5080428;28;20555;-73
2021/06/18 08:48:29;;;;;;;9.80;6.97;;;;;;;42.85;21.97;100080.41;5079119;28;20484;-73
2021/06/18 08:50:55;;;;;;;13.70;6.87;;;;;;;43.12;22.28;100084.28;5080298;28;20492;-73
2021/06/18 08:53:23;;;;;;;11.53;6.40;;;;;;;42.70;22.72;100073.59;5080693;28;20514;-74
2021/06/18 08:55:54;;;;;;;7.73;6.93;;;;;;;42.94;22.29;100080.25;5089104;28;20467;-73
2021/06/18 08:58:21;;;;;;;6.37;5.87;;;;;;;43.18;22.31;100076.41;5099032;28;20470;-73
2021/06/18 09:00:47;;;;;;;8.07;6.70;;;;;;;42.99;22.41;100071.53;5091761;28;20471;-73
2021/06/18 09:03:34;;;;;;;6.90;6.00;;;;;;;42.55;23.32;100075.22;5100285;28;20427;-73
2021/06/18 09:06:01;;;;;;;7.43;6.50;;;;;;;42.71;22.81;100080.88;5100306;28;20546;-73
2021/06/18 09:08:28;;;;;;;7.27;6.37;;;;;;;41.57;24.61;100088.47;5083671;28;20461;-72
2021/06/18 09:10:56;;;;;;;8.50;6.07;;;;;;;42.60;23.64;100083.38;5077579;28;20518;-73
2021/06/18 09:13:30;;;;;;;7.57;6.87;;;;;;;42.41;23.00;100077.63;5079709;28;20559;-72
2021/06/18 09:15:58;;;;;;;8.00;7.07;;;;;;;42.34;23.17;100078.25;5078361;28;20499;-73
2021/06/18 09:18:27;;;;;;;7.63;6.60;;;;;;;40.93;24.72;100078.81;5078064;28;20440;-72
2021/06/18 09:20:55;;;;;;;9.70;7.93;;;;;;;39.31;26.85;100080.44;5078798;28;20510;-72
2021/06/18 09:23:22;;;;;;;10.33;7.47;;;;;;;39.51;26.23;100068.50;5079968;28;20929;-73
2021/06/18 09:25:49;;;;;;;7.93;7.30;;;;;;;40.20;26.51;100079.44;5077193;28;20469;-72
2021/06/18 09:28:17;;;;;;;7.87;7.03;;;;;;;41.13;25.34;100079.03;5079484;28;20926;-73
2021/06/18 09:30:44;;;;;;;9.53;7.50;;;;;;;41.19;24.88;100092.47;5079104;28;20484;-73
2021/06/18 09:33:19;;;;;;;8.47;6.97;;;;;;;41.43;24.78;100085.22;5078066;28;20488;-73
2021/06/18 09:36:03;;;;;;;7.20;6.53;;;;;;;40.85;25.51;100090.94;5059773;28;20466;-73
2021/06/18 09:38:40;;;;;;;9.13;7.73;;;;;;;40.22;27.34;100091.94;5077591;28;20507;-74
2021/06/18 09:41:07;;;;;;;7.83;6.73;;;;;;;40.93;26.39;100087.22;5077436;28;20474;-73
2021/06/18 09:43:44;;;;;;;8.97;7.67;;;;;;;40.77;26.20;100083.44;5079005;28;20891;-73
2021/06/18 09:46:11;;;;;;;8.20;7.40;;;;;;;40.42;26.10;100083.88;5077395;28;20472;-72
2021/06/18 09:48:38;;;;;;;11.93;8.37;;;;;;;39.81;27.06;100075.97;5078352;28;20515;-72
2021/06/18 09:51:05;;;;;;;8.13;7.50;;;;;;;40.50;26.56;100082.94;5060842;28;20570;-73
2021/06/18 09:53:32;;;;;;;8.30;7.57;;;;;;;40.51;26.63;100086.56;5079767;28;20908;-73
2021/06/18 09:56:04;;;;;;;8.40;7.70;;;;;;;40.81;26.30;100074.00;5077865;28;20472;-73
2021/06/18 09:58:35;;;;;;;8.77;7.37;;;;;;;39.94;28.09;100080.50;5079440;28;20470;-72
2021/06/18 10:01:21;;;;;;;10.70;7.10;;;;;;;40.27;27.97;100077.72;5071281;28;20507;-73
2021/06/18 10:04:02;;;;;;;9.13;8.30;;;;;;;40.33;26.25;100086.72;5078949;28;20475;-73
2021/06/18 10:06:29;;;;;;;8.93;8.13;;;;;;;40.82;25.87;100084.06;5078716;28;20468;-74
2021/06/18 10:08:56;;;;;;;8.10;7.30;;;;;;;41.44;24.87;100089.69;5079823;28;20460;-73
2021/06/18 10:11:23;;;;;;;9.80;8.90;;;;;;;40.48;26.48;100088.88;5077035;28;20503;-73
2021/06/18 10:13:52;;;;;;;8.97;8.07;;;;;;;40.17;27.55;100092.13;5078669;28;20527;-73
2021/06/18 10:16:22;;;;;;;10.07;8.80;;;;;;;40.13;26.85;100093.19;5074980;28;20602;-72
2021/06/18 10:18:49;;;;;;;8.90;7.67;;;;;;;40.41;27.58;100087.81;5072879;28;20460;-73
2021/06/18 10:21:16;;;;;;;10.13;8.93;;;;;;;40.69;25.83;100087.97;5079095;28;20469;-73
2021/06/18 10:23:43;;;;;;;11.20;8.57;;;;;;;41.17;25.72;100089.19;5076228;28;20460;-73
2021/06/18 10:26:12;;;;;;;10.03;8.57;;;;;;;40.39;25.57;100082.56;5076238;28;20502;-73
2021/06/18 10:28:39;;;;;;;9.17;8.30;;;;;;;39.90;26.58;100076.75;5079404;28;20451;-73
2021/06/18 10:31:06;;;;;;;9.50;8.70;;;;;;;39.36;27.94;100077.47;5078386;28;20543;-73
2021/06/18 10:33:38;;;;;;;9.27;8.47;;;;;;;40.46;27.04;100071.59;5064491;28;20479;-74
2021/06/18 10:36:23;;;;;;;9.27;8.40;;;;;;;40.50;24.82;100068.91;5080357;28;20965;-74
2021/06/18 10:39:06;;;;;;;11.50;8.80;;;;;;;39.24;27.26;100078.19;5083256;28;20482;-73
2021/06/18 10:41:33;;;;;;;8.80;7.90;;;;;;;40.17;26.50;100064.13;5065251;28;20466;-73
2021/06/18 10:44:00;;;;;;;10.47;9.37;;;;;;;40.43;25.13;100063.91;5082432;28;20834;-74
2021/06/18 10:46:29;;;;;;;11.87;8.57;;;;;;;40.99;26.18;100062.56;5083065;28;20483;-74
2021/06/18 10:49:05;;;;;;;9.13;7.90;;;;;;;41.04;25.78;100062.31;5065945;28;20525;-73
2021/06/18 10:51:34;;;;;;;9.57;8.57;;;;;;;40.72;26.34;100053.66;5067137;28;20501;-73
2021/06/18 10:54:03;;;;;;;9.80;8.70;;;;;;;40.38;27.02;100054.88;5080953;28;20488;-73
2021/06/18 10:56:58;;;;;;;9.40;8.60;;;;;;;39.64;27.32;100063.78;5081367;28;20510;-71
2021/06/18 10:59:33;;;;;;;9.70;8.90;;;;;;;39.09;29.08;100062.81;5066504;28;20476;-73
2021/06/18 11:02:01;;;;;;;9.93;8.83;;;;;;;40.02;27.46;100057.22;5086754;28;20943;-74
2021/06/18 11:04:41;;;;;;;10.20;8.43;;;;;;;40.30;27.38;100059.41;5071674;28;20481;-73
2021/06/18 11:07:24;;;;;;;8.90;8.10;;;;;;;40.33;27.45;100052.28;5082606;28;20480;-74
2021/06/18 11:09:52;;;;;;;9.87;8.90;;;;;;;38.23;28.86;100061.94;5080794;28;20463;-73
2021/06/18 11:12:37;;;;;;;10.03;9.13;;;;;;;38.83;28.39;100064.91;5081612;28;20476;-73
2021/06/18 11:15:05;;;;;;;11.83;9.57;;;;;;;39.07;29.11;100053.94;5082502;28;20455;-73
2021/06/18 11:17:40;;;;;;;10.30;9.40;;;;;;;39.67;27.50;100051.91;5081116;28;20491;-73
2021/06/18 11:20:09;;;;;;;8.87;8.07;;;;;;;40.24;28.17;100055.19;5082154;28;20452;-73
2021/06/18 11:22:37;;;;;;;9.50;8.70;;;;;;;39.19;28.53;100058.00;5070705;28;20441;-73
2021/06/18 11:25:06;;;;;;;9.13;7.80;;;;;;;39.41;28.44;100056.84;5080751;28;20444;-74
2021/06/18 11:27:32;;;;;;;12.83;9.23;;;;;;;39.33;28.13;100042.59;5082304;28;20456;-72